createdAt,value
2019-03-09T00:02:32.801Z,21.53
2019-03-09T00:07:37.024Z,21.53
2019-03-09T00:12:41.411Z,21.48
2019-03-09T00:17:45.696Z,21.48
2019-03-09T00:22:55.320Z,21.48
2019-03-09T00:28:14.985Z,21.44
2019-03-09T00:33:19.081Z,21.42
2019-03-09T00:38:23.559Z,21.37
2019-03-09T00:43:27.917Z,21.37
2019-03-09T00:48:32.195Z,21.33
2019-03-09T00:53:36.481Z,21.33
2019-03-09T00:58:40.829Z,21.28
2019-03-09T01:03:45.098Z,21.26
2019-03-09T01:08:49.341Z,21.26
2019-03-09T01:13:53.586Z,21.23
2019-03-09T01:18:57.669Z,21.21
2019-03-09T01:24:01.945Z,21.19
2019-03-09T01:29:06.097Z,21.19
2019-03-09T01:34:10.213Z,21.15
2019-03-09T01:39:14.454Z,21.12
2019-03-09T01:44:18.803Z,21.10
2019-03-09T01:49:23.109Z,21.09
2019-03-09T01:54:27.405Z,21.06
2019-03-09T01:59:31.556Z,21.06
2019-03-09T02:04:35.783Z,21.06
2019-03-09T02:09:39.879Z,21.02
2019-03-09T02:14:44.138Z,21.02
2019-03-09T02:19:48.331Z,20.99
2019-03-09T02:24:52.594Z,20.98
2019-03-09T02:29:56.838Z,20.97
2019-03-09T02:35:01.104Z,20.95
2019-03-09T02:40:09.275Z,20.93
2019-03-09T02:45:14.937Z,20.93
2019-03-09T02:50:19.064Z,20.89
2019-03-09T02:55:23.316Z,20.89
2019-03-09T03:00:29.102Z,20.89
2019-03-09T03:05:33.206Z,20.86
2019-03-09T03:10:37.546Z,20.83
2019-03-09T03:15:41.874Z,20.83
2019-03-09T03:20:45.996Z,20.81
2019-03-09T03:25:50.270Z,20.79
2019-03-09T03:30:54.596Z,20.79
2019-03-09T03:35:58.649Z,20.77
2019-03-09T03:41:02.991Z,20.76
2019-03-09T03:46:07.024Z,20.75
2019-03-09T03:51:11.183Z,20.75
2019-03-09T03:56:15.327Z,20.75
2019-03-09T04:01:19.625Z,20.70
2019-03-09T04:06:24.354Z,20.71
2019-03-09T04:11:28.681Z,20.70
2019-03-09T04:16:32.885Z,20.68
2019-03-09T04:21:37.031Z,20.68
2019-03-09T04:26:41.291Z,20.68
2019-03-09T04:31:45.544Z,20.66
2019-03-09T04:36:57.656Z,20.66
2019-03-09T04:42:01.795Z,20.64
2019-03-09T04:47:06.034Z,20.61
2019-03-09T04:52:10.263Z,20.61
2019-03-09T04:57:14.680Z,20.59
2019-03-09T05:02:18.935Z,20.59
2019-03-09T05:07:30.047Z,20.58
2019-03-09T05:12:34.189Z,20.58
2019-03-09T05:17:38.466Z,20.56
2019-03-09T05:22:42.731Z,20.54
2019-03-09T05:27:46.993Z,20.54
2019-03-09T05:32:51.142Z,20.53
2019-03-09T05:37:55.331Z,20.53
2019-03-09T05:42:59.613Z,20.50
2019-03-09T05:48:03.984Z,20.50
2019-03-09T05:53:13.567Z,20.48
2019-03-09T05:58:17.885Z,20.38
2019-03-09T06:03:29.779Z,20.45
2019-03-09T06:08:34.040Z,20.43
2019-03-09T06:13:38.451Z,20.42
2019-03-09T06:18:42.707Z,20.41
2019-03-09T06:23:47.038Z,20.44
2019-03-09T06:28:51.136Z,20.41
2019-03-09T06:33:56.899Z,20.41
2019-03-09T06:39:07.738Z,20.37
2019-03-09T06:44:11.993Z,20.35
2019-03-09T06:49:16.190Z,20.34
2019-03-09T06:54:20.469Z,20.34
2019-03-09T06:59:24.706Z,20.32
2019-03-09T07:04:29.003Z,20.32
2019-03-09T07:09:33.140Z,20.33
2019-03-09T07:15:20.539Z,20.32
2019-03-09T07:20:24.816Z,20.30
2019-03-09T07:25:31.959Z,20.30
2019-03-09T07:30:36.435Z,20.28
2019-03-09T07:35:40.789Z,20.33
2019-03-09T07:40:44.873Z,20.30
2019-03-09T07:45:49.338Z,20.29
2019-03-09T07:50:53.458Z,20.30
2019-03-09T07:55:57.612Z,20.32
2019-03-09T08:01:01.935Z,20.34
2019-03-09T08:06:14.479Z,20.37
2019-03-09T08:11:31.353Z,20.00
2019-03-09T08:16:35.911Z,20.00
2019-03-09T08:27:52.874Z,20.55
2019-03-09T08:54:59.462Z,20.69
2019-03-09T09:00:17.770Z,20.71
2019-03-09T09:15:57.648Z,20.72
2019-03-09T09:37:39.092Z,20.82
2019-03-09T09:42:43.407Z,20.90
2019-03-09T09:47:47.729Z,20.90
2019-03-09T09:52:51.966Z,20.91
2019-03-09T09:57:56.201Z,20.91
2019-03-09T10:03:00.606Z,20.94
2019-03-09T10:08:04.993Z,20.94
2019-03-09T10:13:09.139Z,21.00
2019-03-09T10:18:13.507Z,21.05
2019-03-09T10:23:17.699Z,21.07
2019-03-09T10:28:21.998Z,21.07
2019-03-09T10:33:26.241Z,21.15
2019-03-09T10:38:30.462Z,21.15
2019-03-09T10:43:34.792Z,21.10
2019-03-09T10:48:39.177Z,21.10
2019-03-09T10:53:43.278Z,21.11
2019-03-09T10:58:47.595Z,21.15
2019-03-09T11:03:51.938Z,21.15
2019-03-09T11:09:01.657Z,21.17
2019-03-09T11:14:06.077Z,21.24
2019-03-09T11:19:10.438Z,21.26
2019-03-09T11:24:14.645Z,21.26
2019-03-09T11:29:18.734Z,21.26
2019-03-09T11:34:27.534Z,21.26
2019-03-09T11:39:32.293Z,21.38
2019-03-09T11:44:36.913Z,21.37
2019-03-09T11:49:41.351Z,21.33
2019-03-09T11:54:45.817Z,21.33
2019-03-09T11:59:50.393Z,21.30
2019-03-09T12:04:54.811Z,21.31
2019-03-09T12:09:59.080Z,21.26
2019-03-09T12:15:15.919Z,21.30
2019-03-09T12:21:07.449Z,21.33
2019-03-09T12:26:14.292Z,21.31
2019-03-09T12:31:27.912Z,21.31
2019-03-09T12:36:32.494Z,21.31
2019-03-09T12:41:37.402Z,21.30
2019-03-09T12:46:41.998Z,21.29
2019-03-09T12:51:46.346Z,21.29
2019-03-09T12:56:50.751Z,21.27
2019-03-09T13:01:57.536Z,21.27
2019-03-09T13:07:02.158Z,21.25
2019-03-09T13:12:08.748Z,21.24
2019-03-09T13:17:15.353Z,21.24
2019-03-09T13:22:19.674Z,21.24
2019-03-09T13:27:24.082Z,21.24
2019-03-09T13:32:28.435Z,21.24
2019-03-09T13:37:32.810Z,21.24
2019-03-09T13:42:37.351Z,21.22
2019-03-09T13:47:41.731Z,21.23
2019-03-09T13:52:45.989Z,21.25
2019-03-09T13:57:50.141Z,21.20
2019-03-09T14:02:54.428Z,21.21
2019-03-09T14:07:58.762Z,21.25
2019-03-09T14:13:03.107Z,21.26
2019-03-09T14:18:07.523Z,21.26
2019-03-09T14:23:11.853Z,21.25
2019-03-09T14:28:16.176Z,21.25
2019-03-09T14:33:23.204Z,21.25
2019-03-09T14:38:41.158Z,21.33
2019-03-09T14:43:48.818Z,21.29
2019-03-09T14:48:53.452Z,21.24
2019-03-09T14:53:58.183Z,21.20
2019-03-09T15:00:21.084Z,21.20
2019-03-09T15:05:27.830Z,21.21
2019-03-09T15:16:12.667Z,21.23
2019-03-09T15:21:17.226Z,21.25
2019-03-09T15:26:21.594Z,21.38
2019-03-09T15:31:26.177Z,21.47
2019-03-09T15:36:33.223Z,21.52
2019-03-09T15:41:41.772Z,21.52
2019-03-09T15:46:48.149Z,21.64
2019-03-09T16:03:50.197Z,21.63
2019-03-09T16:08:55.202Z,21.64
2019-03-09T16:13:59.541Z,21.62
2019-03-09T16:24:44.262Z,21.50
2019-03-09T16:29:52.944Z,21.50
2019-03-09T16:35:05.925Z,21.35
2019-03-09T16:40:13.894Z,21.29
2019-03-09T16:45:33.103Z,21.24
2019-03-09T16:50:33.504Z,21.19
2019-03-09T16:55:37.865Z,21.13
2019-03-09T17:00:42.235Z,21.02
2019-03-09T17:05:57.698Z,21.17
2019-03-09T17:10:52.912Z,21.17
2019-03-09T17:16:00.307Z,21.79
2019-03-09T17:21:04.610Z,22.20
2019-03-09T17:26:08.851Z,22.16
2019-03-09T17:31:13.083Z,22.14
2019-03-09T17:36:17.431Z,22.19
2019-03-09T17:41:21.681Z,22.12
2019-03-09T17:46:26.059Z,22.36
2019-03-09T17:52:51.357Z,22.49
2019-03-09T17:57:19.633Z,22.49
2019-03-09T18:02:24.962Z,22.53
2019-03-09T18:07:33.833Z,22.49
2019-03-09T18:12:42.219Z,22.49
2019-03-09T18:17:46.529Z,22.51
2019-03-09T18:23:00.696Z,22.52
2019-03-09T18:28:05.196Z,22.56
2019-03-09T18:33:10.972Z,22.55
2019-03-09T18:38:18.065Z,22.52
2019-03-09T18:48:46.492Z,22.63
2019-03-09T18:53:50.928Z,22.73
2019-03-09T18:58:56.279Z,22.75
2019-03-09T19:04:02.177Z,22.58
2019-03-09T19:09:09.567Z,22.77
2019-03-09T19:14:14.209Z,22.75
2019-03-09T19:19:18.985Z,22.63
2019-03-09T19:24:25.245Z,22.59
2019-03-09T19:29:29.708Z,22.52
2019-03-09T19:34:34.665Z,22.50
2019-03-09T19:39:39.094Z,22.55
2019-03-09T19:44:43.650Z,22.63
2019-03-09T20:28:28.727Z,22.17
2019-03-09T20:33:33.655Z,22.09
2019-03-09T20:39:00.206Z,22.02
2019-03-09T20:44:20.944Z,21.95
2019-03-09T20:49:30.705Z,21.90
2019-03-09T20:59:57.401Z,21.88
2019-03-09T21:05:01.648Z,21.88
2019-03-09T21:10:07.646Z,21.74
2019-03-09T21:15:11.887Z,21.75
2019-03-09T21:20:16.122Z,21.71
2019-03-09T21:25:20.280Z,21.65
2019-03-09T21:30:24.578Z,21.60
2019-03-09T21:35:28.710Z,21.58
2019-03-09T21:40:32.846Z,21.56
2019-03-09T21:45:36.923Z,21.56
2019-03-09T21:50:41.140Z,21.53
2019-03-09T21:55:45.957Z,21.54
2019-03-09T22:00:50.288Z,21.54
2019-03-09T22:05:54.437Z,21.52
2019-03-09T22:10:58.597Z,21.40
2019-03-09T22:16:02.752Z,21.46
2019-03-09T22:21:06.781Z,21.45
2019-03-09T22:26:11.021Z,21.45
2019-03-09T22:31:15.086Z,21.38
2019-03-09T22:36:19.323Z,21.46
2019-03-09T22:41:23.405Z,21.46
2019-03-09T22:46:27.470Z,21.44
2019-03-09T22:51:31.585Z,21.45
2019-03-09T22:56:35.692Z,21.44
2019-03-09T23:01:39.930Z,21.45
2019-03-09T23:06:44.240Z,21.45
2019-03-09T23:11:48.740Z,21.45
2019-03-09T23:16:53.106Z,21.44
2019-03-09T23:21:57.523Z,21.42
2019-03-09T23:27:01.844Z,21.33
2019-03-09T23:32:06.216Z,21.39
2019-03-09T23:37:10.601Z,21.29
2019-03-09T23:42:15.015Z,21.31
2019-03-09T23:47:20.299Z,21.34
2019-03-09T23:52:24.737Z,21.34
2019-03-09T23:57:29.310Z,21.28
